createdAt,value
2023-08-23T00:00:33.634Z,52.44
2023-08-23T00:03:07.657Z,52.37
2023-08-23T00:05:34.536Z,52.74
2023-08-23T00:08:06.643Z,52.52
2023-08-23T00:10:33.483Z,52.82
2023-08-23T00:13:00.871Z,52.75
2023-08-23T00:15:27.840Z,52.96
2023-08-23T00:17:54.840Z,53.18
2023-08-23T00:20:25.622Z,53.36
2023-08-23T00:22:52.399Z,53.19
2023-08-23T00:25:19.247Z,53.24
2023-08-23T00:27:50.089Z,52.99
2023-08-23T00:30:23.582Z,54.75
2023-08-23T00:32:50.445Z,53.67
2023-08-23T00:35:17.379Z,52.68
2023-08-23T00:37:44.273Z,52.34
2023-08-23T00:40:11.661Z,52.55
2023-08-23T00:42:38.410Z,52.35
2023-08-23T00:45:05.683Z,52.82
2023-08-23T00:47:32.770Z,52.67
2023-08-23T00:49:59.680Z,52.78
2023-08-23T00:52:33.604Z,53.04
2023-08-23T00:55:06.898Z,53.37
2023-08-23T00:57:33.639Z,53.55
2023-08-23T01:00:01.579Z,53.48
2023-08-23T01:02:30.649Z,53.59
2023-08-23T01:05:03.522Z,53.86
2023-08-23T01:08:12.290Z,54.26
2023-08-23T01:11:03.217Z,54.16
2023-08-23T01:13:50.229Z,54.44
2023-08-23T01:16:20.661Z,54.35
2023-08-23T01:18:48.881Z,54.36
2023-08-23T01:21:24.317Z,54.50
2023-08-23T01:23:51.733Z,54.23
2023-08-23T01:26:20.645Z,54.51
2023-08-23T01:28:48.999Z,54.67
2023-08-23T01:31:16.793Z,54.80
2023-08-23T01:33:51.154Z,54.93
2023-08-23T01:36:25.036Z,54.91
2023-08-23T01:38:55.968Z,54.91
2023-08-23T01:41:23.805Z,55.41
2023-08-23T01:43:53.820Z,55.35
2023-08-23T01:46:20.741Z,55.60
2023-08-23T01:48:47.869Z,55.63
2023-08-23T01:51:15.810Z,55.75
2023-08-23T01:53:42.588Z,55.77
2023-08-23T01:56:09.457Z,55.79
2023-08-23T01:58:38.532Z,55.82
2023-08-23T02:01:05.369Z,55.79
2023-08-23T02:03:32.418Z,55.92
2023-08-23T02:05:59.368Z,56.04
2023-08-23T02:08:26.520Z,56.45
2023-08-23T02:10:53.258Z,56.57
2023-08-23T02:13:20.156Z,56.84
2023-08-23T02:15:50.157Z,56.96
2023-08-23T02:18:17.952Z,56.96
2023-08-23T02:20:45.096Z,57.16
2023-08-23T02:23:14.889Z,56.68
2023-08-23T02:25:42.903Z,56.93
2023-08-23T02:28:09.670Z,56.90
2023-08-23T02:30:36.399Z,56.89
2023-08-23T02:33:12.244Z,56.72
2023-08-23T02:35:44.843Z,56.81
2023-08-23T02:38:12.010Z,56.70
2023-08-23T02:40:42.864Z,56.92
2023-08-23T02:43:10.161Z,57.26
2023-08-23T02:45:41.123Z,57.04
2023-08-23T02:48:10.467Z,56.94
2023-08-23T02:50:38.459Z,56.98
2023-08-23T02:53:05.271Z,56.96
2023-08-23T02:55:38.255Z,57.30
2023-08-23T02:58:05.620Z,57.44
2023-08-23T03:00:32.339Z,57.72
2023-08-23T03:03:01.992Z,57.88
2023-08-23T03:05:29.505Z,57.58
2023-08-23T03:08:01.080Z,57.29
2023-08-23T03:10:29.117Z,57.49
2023-08-23T03:12:56.249Z,57.38
2023-08-23T03:15:29.682Z,57.61
2023-08-23T03:17:56.459Z,57.42
2023-08-23T03:20:23.401Z,57.63
2023-08-23T03:22:51.630Z,58.00
2023-08-23T03:25:18.928Z,58.14
2023-08-23T03:27:46.182Z,57.25
2023-08-23T03:30:13.401Z,56.92
2023-08-23T03:32:40.536Z,56.60
2023-08-23T03:35:10.561Z,56.77
2023-08-23T03:37:37.625Z,56.75
2023-08-23T03:40:09.043Z,56.13
2023-08-23T03:42:35.746Z,56.39
2023-08-23T03:45:02.468Z,56.71
2023-08-23T03:47:32.349Z,56.72
2023-08-23T03:50:02.208Z,56.58
2023-08-23T03:52:28.949Z,56.29
2023-08-23T03:54:55.685Z,55.96
2023-08-23T03:57:25.173Z,55.75
2023-08-23T03:59:53.973Z,55.68
2023-08-23T04:02:23.068Z,55.63
2023-08-23T04:04:49.916Z,56.28
2023-08-23T04:07:17.122Z,56.16
2023-08-23T04:09:43.870Z,56.31
2023-08-23T04:12:10.657Z,56.72
2023-08-23T04:14:37.439Z,56.66
2023-08-23T04:17:05.185Z,55.92
2023-08-23T04:19:31.892Z,55.91
2023-08-23T04:22:01.134Z,55.57
2023-08-23T04:24:30.963Z,55.53
2023-08-23T04:26:57.653Z,55.32
2023-08-23T04:29:24.280Z,55.06
2023-08-23T04:31:50.994Z,55.82
2023-08-23T04:34:17.720Z,55.37
2023-08-23T04:36:47.539Z,55.85
2023-08-23T04:39:14.190Z,56.23
2023-08-23T04:41:40.970Z,56.45
2023-08-23T04:44:07.650Z,56.34
2023-08-23T04:46:34.305Z,56.06
2023-08-23T04:49:00.999Z,55.84
2023-08-23T04:51:33.714Z,55.58
2023-08-23T04:54:00.385Z,56.06
2023-08-23T04:56:28.645Z,56.22
2023-08-23T04:58:58.101Z,56.45
2023-08-23T05:01:25.536Z,57.09
2023-08-23T05:03:52.246Z,56.61
2023-08-23T05:06:21.374Z,57.12
2023-08-23T05:08:52.954Z,57.23
2023-08-23T05:11:19.695Z,57.51
2023-08-23T05:13:46.281Z,57.56
2023-08-23T05:16:14.045Z,58.10
2023-08-23T05:18:40.831Z,57.26
2023-08-23T05:21:10.409Z,57.33
2023-08-23T05:23:37.953Z,57.04
2023-08-23T05:26:04.702Z,56.84
2023-08-23T05:28:31.389Z,56.18
2023-08-23T05:30:59.627Z,56.13
2023-08-23T05:33:26.416Z,56.12
2023-08-23T05:35:54.817Z,55.45
2023-08-23T05:38:25.688Z,54.25
2023-08-23T05:40:54.600Z,52.33
2023-08-23T05:43:24.575Z,52.69
2023-08-23T05:45:52.734Z,52.66
2023-08-23T05:48:19.907Z,52.28
2023-08-23T05:50:50.159Z,51.49
2023-08-23T05:53:20.453Z,51.69
2023-08-23T05:55:53.156Z,51.58
2023-08-23T05:58:20.339Z,51.28
2023-08-23T06:00:48.833Z,51.11
2023-08-23T06:03:18.753Z,49.92
2023-08-23T06:05:45.827Z,50.55
2023-08-23T06:08:15.561Z,50.23
2023-08-23T06:10:42.488Z,50.00
2023-08-23T06:13:19.686Z,49.44
2023-08-23T06:15:54.954Z,49.30
2023-08-23T06:18:22.681Z,49.03
2023-08-23T06:20:50.705Z,49.53
2023-08-23T06:23:17.563Z,49.56
2023-08-23T06:25:44.296Z,49.60
2023-08-23T06:28:11.012Z,49.67
2023-08-23T06:30:39.005Z,50.29
2023-08-23T06:33:07.129Z,50.26
2023-08-23T06:35:34.211Z,50.47
2023-08-23T06:38:00.912Z,49.66
2023-08-23T06:40:27.559Z,49.68
2023-08-23T06:42:54.258Z,48.98
2023-08-23T06:45:22.498Z,49.45
2023-08-23T06:47:50.556Z,48.78
2023-08-23T06:50:17.634Z,48.05
2023-08-23T06:52:46.275Z,47.95
2023-08-23T06:55:13.178Z,48.44
2023-08-23T06:57:41.204Z,48.50
2023-08-23T07:00:08.493Z,48.51
2023-08-23T07:02:35.359Z,48.15
2023-08-23T07:05:02.079Z,47.62
2023-08-23T07:07:28.705Z,47.94
2023-08-23T07:09:55.642Z,47.06
2023-08-23T07:12:25.331Z,47.07
2023-08-23T07:14:52.002Z,47.27
2023-08-23T07:17:20.196Z,46.39
2023-08-23T07:19:48.799Z,45.98
2023-08-23T07:22:16.418Z,45.39
2023-08-23T07:24:43.320Z,45.71
2023-08-23T07:27:10.064Z,46.46
2023-08-23T07:29:38.138Z,47.15
2023-08-23T07:32:08.151Z,47.16
2023-08-23T07:34:34.814Z,45.99
2023-08-23T07:37:02.631Z,46.41
2023-08-23T07:39:29.777Z,46.43
2023-08-23T07:42:01.789Z,47.87
2023-08-23T07:44:30.624Z,46.77
2023-08-23T07:46:57.359Z,46.44
2023-08-23T07:49:24.100Z,46.30
2023-08-23T07:51:53.427Z,45.97
2023-08-23T07:54:20.098Z,44.93
2023-08-23T07:56:46.893Z,45.41
2023-08-23T07:59:14.045Z,45.10
2023-08-23T08:01:40.817Z,45.23
2023-08-23T08:04:07.630Z,43.69
2023-08-23T08:06:40.957Z,45.39
2023-08-23T08:09:11.233Z,45.33
2023-08-23T08:11:37.962Z,45.76
2023-08-23T08:14:08.142Z,42.73
2023-08-23T08:16:37.597Z,43.60
2023-08-23T08:19:09.543Z,43.79
2023-08-23T08:21:41.055Z,45.03
2023-08-23T08:24:10.971Z,46.54
2023-08-23T08:26:37.753Z,43.12
2023-08-23T08:29:06.664Z,42.95
2023-08-23T08:31:33.747Z,43.00
2023-08-23T08:34:01.263Z,43.01
2023-08-23T08:36:30.872Z,43.08
2023-08-23T08:39:02.909Z,42.85
2023-08-23T08:41:32.105Z,42.20
2023-08-23T08:44:02.536Z,42.75
2023-08-23T08:46:29.834Z,43.09
2023-08-23T08:49:04.036Z,44.70
2023-08-23T08:51:37.006Z,42.87
2023-08-23T08:54:09.961Z,42.97
2023-08-23T08:56:37.017Z,43.50
2023-08-23T08:59:04.370Z,42.64
2023-08-23T09:01:35.568Z,43.63
2023-08-23T09:04:02.698Z,44.16
2023-08-23T09:06:29.918Z,43.40
2023-08-23T09:08:57.211Z,44.09
2023-08-23T09:11:23.962Z,43.52
2023-08-23T09:14:03.388Z,44.04
2023-08-23T09:16:30.406Z,43.38
2023-08-23T09:19:05.636Z,42.63
2023-08-23T09:21:39.356Z,41.95
2023-08-23T09:24:17.215Z,40.83
2023-08-23T09:26:53.361Z,41.17
2023-08-23T09:29:25.015Z,40.89
2023-08-23T09:31:51.957Z,40.51
2023-08-23T09:34:18.955Z,39.83
2023-08-23T09:36:48.283Z,39.38
2023-08-23T09:39:15.052Z,39.73
2023-08-23T09:41:59.406Z,39.94
2023-08-23T09:44:32.607Z,38.96
2023-08-23T09:47:01.950Z,39.07
2023-08-23T09:49:35.877Z,39.57
2023-08-23T09:52:07.310Z,41.95
2023-08-23T09:55:08.459Z,40.77
2023-08-23T09:57:42.381Z,42.96
2023-08-23T10:00:10.708Z,43.62
2023-08-23T10:02:37.891Z,40.51
2023-08-23T10:05:08.279Z,40.69
2023-08-23T10:07:36.354Z,39.35
2023-08-23T10:10:04.831Z,39.06
2023-08-23T10:12:37.991Z,37.85
2023-08-23T10:15:06.763Z,38.34
2023-08-23T10:17:38.162Z,38.12
2023-08-23T10:20:06.977Z,36.10
2023-08-23T10:22:36.128Z,36.16
2023-08-23T10:25:14.217Z,34.66
2023-08-23T10:27:43.443Z,35.60
2023-08-23T10:30:20.540Z,34.76
2023-08-23T10:32:47.913Z,34.60
2023-08-23T10:35:33.009Z,37.85
2023-08-23T10:38:03.637Z,37.54
2023-08-23T10:40:33.424Z,37.80
2023-08-23T10:43:05.311Z,38.18
2023-08-23T10:45:54.600Z,35.94
2023-08-23T10:48:23.851Z,37.66
2023-08-23T10:50:54.777Z,38.85
2023-08-23T10:53:23.046Z,36.14
2023-08-23T10:55:51.317Z,35.81
2023-08-23T10:58:19.364Z,38.21
2023-08-23T11:00:59.820Z,38.74
2023-08-23T11:03:29.817Z,38.65
2023-08-23T11:05:59.646Z,37.77
2023-08-23T11:08:33.600Z,35.98
2023-08-23T11:11:00.426Z,36.16
2023-08-23T11:13:27.265Z,37.40
2023-08-23T11:15:57.382Z,36.48
2023-08-23T11:18:24.293Z,38.66
2023-08-23T11:20:54.754Z,37.68
2023-08-23T11:23:21.596Z,35.48
2023-08-23T11:25:48.319Z,35.86
2023-08-23T11:28:18.222Z,36.93
2023-08-23T11:30:50.355Z,36.74
2023-08-23T11:33:29.570Z,36.10
2023-08-23T11:35:56.379Z,37.33
2023-08-23T11:38:29.117Z,36.34
2023-08-23T11:40:55.955Z,36.19
2023-08-23T11:43:26.349Z,35.93
2023-08-23T11:45:56.218Z,37.32
2023-08-23T11:48:29.716Z,36.14
2023-08-23T11:50:59.206Z,34.96
2023-08-23T11:53:27.338Z,36.01
2023-08-23T11:56:00.697Z,35.84
2023-08-23T11:58:28.603Z,36.13
2023-08-23T12:00:55.842Z,35.72
2023-08-23T12:03:22.521Z,34.47
2023-08-23T12:05:49.333Z,33.09
2023-08-23T12:08:17.393Z,33.79
2023-08-23T12:10:57.190Z,33.34
2023-08-23T12:13:31.420Z,33.40
2023-08-23T12:16:04.648Z,33.85
2023-08-23T12:18:40.064Z,34.83
2023-08-23T12:21:07.196Z,35.18
2023-08-23T12:23:35.270Z,33.10
2023-08-23T12:26:02.088Z,34.40
2023-08-23T12:28:30.647Z,34.15
2023-08-23T12:31:00.472Z,34.75
2023-08-23T12:33:27.165Z,33.62
2023-08-23T12:35:55.364Z,33.90
2023-08-23T12:38:30.236Z,30.36
2023-08-23T12:41:08.522Z,28.22
2023-08-23T12:43:37.906Z,29.87
2023-08-23T12:46:04.826Z,30.82
2023-08-23T12:48:31.831Z,29.33
2023-08-23T12:50:58.733Z,29.76
2023-08-23T12:53:28.238Z,31.88
2023-08-23T12:55:55.530Z,32.22
2023-08-23T12:58:22.680Z,31.80
2023-08-23T13:00:50.089Z,31.33
2023-08-23T13:03:16.945Z,31.68
2023-08-23T13:05:43.910Z,30.07
2023-08-23T13:08:12.052Z,30.18
2023-08-23T13:10:38.935Z,29.28
2023-08-23T13:13:08.569Z,30.03
2023-08-23T13:15:36.192Z,29.70
2023-08-23T13:18:07.598Z,29.69
2023-08-23T13:20:34.628Z,32.45
2023-08-23T13:23:01.445Z,31.87
2023-08-23T13:25:28.239Z,30.44
2023-08-23T13:27:55.138Z,31.60
2023-08-23T13:30:21.995Z,29.78
2023-08-23T13:32:52.880Z,30.07
2023-08-23T13:35:20.536Z,29.61
2023-08-23T13:37:51.155Z,31.27
2023-08-23T13:40:18.214Z,31.04
2023-08-23T13:42:49.285Z,31.40
2023-08-23T13:45:20.184Z,33.70
2023-08-23T13:47:47.184Z,34.55
2023-08-23T13:50:17.023Z,34.89
2023-08-23T13:52:43.743Z,34.66
2023-08-23T13:55:12.377Z,32.62
2023-08-23T13:57:39.388Z,32.86
2023-08-23T14:00:08.686Z,33.00
2023-08-23T14:02:36.909Z,32.16
2023-08-23T14:05:04.018Z,31.33
2023-08-23T14:07:30.908Z,34.99
2023-08-23T14:09:57.708Z,34.34
2023-08-23T14:12:27.220Z,35.09
2023-08-23T14:14:53.973Z,34.33
2023-08-23T14:17:20.618Z,35.08
2023-08-23T14:19:49.764Z,36.90
2023-08-23T14:22:16.992Z,34.02
2023-08-23T14:24:47.193Z,36.56
2023-08-23T14:27:15.519Z,33.88
2023-08-23T14:29:42.689Z,37.08
2023-08-23T14:32:09.474Z,35.43
2023-08-23T14:34:36.214Z,33.47
2023-08-23T14:37:03.023Z,33.58
2023-08-23T14:39:33.535Z,36.07
2023-08-23T14:42:00.489Z,34.96
2023-08-23T14:44:30.689Z,37.06
2023-08-23T14:46:59.426Z,35.91
2023-08-23T14:49:26.080Z,35.51
2023-08-23T14:51:52.773Z,37.89
2023-08-23T14:54:22.149Z,37.87
2023-08-23T14:56:48.982Z,36.16
2023-08-23T14:59:15.586Z,36.20
2023-08-23T15:01:42.231Z,36.48
2023-08-23T15:04:08.941Z,36.40
2023-08-23T15:06:37.406Z,39.13
2023-08-23T15:09:05.294Z,39.37
2023-08-23T15:11:32.008Z,35.23
2023-08-23T15:13:59.885Z,37.64
2023-08-23T15:16:29.089Z,36.86
2023-08-23T15:19:02.978Z,37.75
2023-08-23T15:21:29.949Z,38.40
2023-08-23T15:23:56.644Z,36.84
2023-08-23T15:26:26.403Z,39.10
2023-08-23T15:28:56.838Z,35.79
2023-08-23T15:31:24.310Z,37.54
2023-08-23T15:33:51.108Z,36.69
2023-08-23T15:36:20.755Z,36.45
2023-08-23T15:38:47.605Z,37.58
2023-08-23T15:41:14.372Z,38.06
2023-08-23T15:43:41.073Z,39.44
2023-08-23T15:46:07.787Z,38.78
2023-08-23T15:48:34.500Z,35.77
2023-08-23T15:51:06.205Z,36.57
2023-08-23T15:53:33.205Z,38.32
2023-08-23T15:56:03.781Z,39.00
2023-08-23T15:58:31.097Z,39.64
2023-08-23T16:00:58.160Z,36.80
2023-08-23T16:03:24.987Z,38.00
2023-08-23T16:06:01.419Z,38.84
2023-08-23T16:08:28.997Z,39.89
2023-08-23T16:10:58.978Z,38.06
2023-08-23T16:13:26.160Z,40.38
2023-08-23T16:15:56.378Z,39.03
2023-08-23T16:18:26.775Z,38.47
2023-08-23T16:20:53.593Z,36.63
2023-08-23T16:23:20.368Z,37.54
2023-08-23T16:25:50.551Z,37.69
2023-08-23T16:28:19.959Z,36.15
2023-08-23T16:30:50.244Z,37.59
2023-08-23T16:33:17.762Z,37.86
2023-08-23T16:35:44.513Z,39.38
2023-08-23T16:38:13.859Z,38.75
2023-08-23T16:40:46.009Z,40.38
2023-08-23T16:43:15.490Z,40.73
2023-08-23T16:45:42.383Z,40.57
2023-08-23T16:48:09.297Z,40.40
2023-08-23T16:50:36.561Z,41.84
2023-08-23T16:53:04.538Z,40.76
2023-08-23T16:55:37.352Z,41.63
2023-08-23T16:58:09.067Z,39.73
2023-08-23T17:03:10.905Z,40.68
2023-08-23T17:05:37.861Z,40.63
2023-08-23T17:08:04.838Z,41.73
2023-08-23T17:10:32.450Z,40.25
2023-08-23T17:12:59.429Z,41.32
2023-08-23T17:15:27.628Z,41.92
2023-08-23T17:17:54.942Z,40.66
2023-08-23T17:20:22.475Z,41.29
2023-08-23T17:22:52.360Z,41.65
2023-08-23T17:25:20.525Z,41.63
2023-08-23T17:27:51.021Z,39.62
2023-08-23T17:30:22.294Z,41.80
2023-08-23T17:32:49.305Z,41.75
2023-08-23T17:35:19.542Z,41.69
2023-08-23T17:37:48.497Z,41.73
2023-08-23T17:40:15.973Z,41.20
2023-08-23T17:42:42.838Z,41.06
2023-08-23T17:45:10.217Z,41.00
2023-08-23T17:47:37.091Z,40.93
2023-08-23T17:50:05.368Z,41.24
2023-08-23T17:52:32.149Z,40.03
2023-08-23T17:55:09.205Z,40.69
2023-08-23T17:57:38.961Z,41.29
2023-08-23T18:00:06.329Z,41.22
2023-08-23T18:02:33.153Z,41.30
2023-08-23T18:04:59.958Z,40.77
2023-08-23T18:07:28.255Z,40.75
2023-08-23T18:10:03.335Z,40.43
2023-08-23T18:12:30.156Z,38.84
2023-08-23T18:14:57.016Z,38.78
2023-08-23T18:17:25.719Z,41.30
2023-08-23T18:19:52.547Z,40.37
2023-08-23T18:22:19.252Z,40.11
2023-08-23T18:24:46.112Z,41.23
2023-08-23T18:27:15.716Z,41.23
2023-08-23T18:29:45.646Z,41.96
2023-08-23T18:32:13.142Z,42.39
2023-08-23T18:34:39.963Z,42.52
2023-08-23T18:37:06.763Z,41.68
2023-08-23T18:39:35.468Z,39.69
2023-08-23T18:42:03.624Z,41.79
2023-08-23T18:44:32.175Z,41.67
2023-08-23T18:46:59.088Z,41.17
2023-08-23T18:49:25.831Z,42.54
2023-08-23T18:51:52.549Z,42.32
2023-08-23T18:54:19.366Z,42.40
2023-08-23T18:56:46.116Z,42.97
2023-08-23T18:59:12.932Z,41.58
2023-08-23T19:01:39.942Z,40.70
2023-08-23T19:04:06.726Z,43.02
2023-08-23T19:06:39.444Z,40.84
2023-08-23T19:09:09.234Z,40.91
2023-08-23T19:11:35.979Z,41.93
2023-08-23T19:14:10.997Z,42.46
2023-08-23T19:16:37.801Z,42.14
2023-08-23T19:19:04.590Z,41.73
2023-08-23T19:21:31.373Z,43.29
2023-08-23T19:23:58.202Z,41.87
2023-08-23T19:26:25.060Z,41.11
2023-08-23T19:28:51.861Z,40.22
2023-08-23T19:31:21.648Z,41.46
2023-08-23T19:33:48.426Z,43.09
2023-08-23T19:36:15.181Z,42.17
2023-08-23T19:38:41.854Z,42.26
2023-08-23T19:41:08.558Z,39.92
2023-08-23T19:43:35.339Z,41.08
2023-08-23T19:46:02.419Z,39.23
2023-08-23T19:48:33.248Z,40.21
2023-08-23T19:51:03.995Z,40.76
2023-08-23T19:53:31.406Z,41.93
2023-08-23T19:56:05.674Z,40.50
2023-08-23T19:58:37.095Z,40.12
2023-08-23T20:01:04.371Z,40.36
2023-08-23T20:03:31.740Z,40.24
2023-08-23T20:05:58.826Z,41.34
2023-08-23T20:08:25.638Z,40.88
2023-08-23T20:10:52.435Z,41.61
2023-08-23T20:13:25.973Z,41.19
2023-08-23T20:15:52.788Z,41.62
2023-08-23T20:18:19.694Z,40.82
2023-08-23T20:20:46.515Z,40.25
2023-08-23T20:23:16.293Z,40.55
2023-08-23T20:25:43.161Z,41.04
2023-08-23T20:28:10.010Z,41.14
2023-08-23T20:30:42.481Z,41.66
2023-08-23T20:33:09.662Z,41.77
2023-08-23T20:35:36.582Z,42.01
2023-08-23T20:38:03.508Z,41.40
2023-08-23T20:40:33.948Z,41.34
2023-08-23T20:43:00.884Z,41.08
2023-08-23T20:45:27.918Z,42.49
2023-08-23T20:48:00.211Z,42.75
2023-08-23T20:50:27.084Z,42.17
2023-08-23T20:52:53.995Z,41.85
2023-08-23T20:55:20.853Z,41.47
2023-08-23T20:57:48.196Z,41.96
2023-08-23T21:00:15.995Z,43.22
2023-08-23T21:02:43.116Z,43.48
2023-08-23T21:05:10.150Z,43.92
2023-08-23T21:07:36.777Z,43.36
2023-08-23T21:10:07.154Z,45.17
2023-08-23T21:12:35.273Z,45.40
2023-08-23T21:15:02.232Z,44.27
2023-08-23T21:17:30.759Z,44.20
2023-08-23T21:19:57.531Z,45.38
2023-08-23T21:22:24.820Z,44.27
2023-08-23T21:24:51.707Z,41.56
2023-08-23T21:27:19.218Z,41.19
2023-08-23T21:29:46.143Z,42.22
2023-08-23T21:32:12.911Z,42.63
2023-08-23T21:34:39.892Z,43.55
2023-08-23T21:37:06.633Z,43.79
2023-08-23T21:39:33.344Z,45.63
2023-08-23T21:41:59.961Z,44.13
2023-08-23T21:44:28.747Z,46.42
2023-08-23T21:47:04.133Z,46.82
2023-08-23T21:49:33.829Z,44.10
2023-08-23T21:52:00.503Z,42.74
2023-08-23T21:54:32.518Z,42.10
2023-08-23T21:56:59.164Z,42.21
2023-08-23T21:59:26.298Z,42.45
2023-08-23T22:01:53.241Z,41.79
2023-08-23T22:04:20.024Z,41.75
2023-08-23T22:06:46.746Z,42.53
2023-08-23T22:09:16.539Z,42.96
2023-08-23T22:11:46.216Z,42.74
2023-08-23T22:14:12.852Z,42.54
2023-08-23T22:16:41.151Z,42.46
2023-08-23T22:19:09.432Z,43.36
2023-08-23T22:21:36.394Z,43.11
2023-08-23T22:24:03.338Z,43.27
2023-08-23T22:26:30.153Z,42.90
2023-08-23T22:28:57.424Z,43.31
2023-08-23T22:31:36.575Z,42.69
2023-08-23T22:34:03.557Z,43.66
2023-08-23T22:36:30.408Z,43.89
2023-08-23T22:38:58.783Z,43.35
2023-08-23T22:41:25.734Z,43.23
2023-08-23T22:43:52.682Z,43.34
2023-08-23T22:46:31.692Z,43.06
2023-08-23T22:48:59.310Z,43.17
2023-08-23T22:51:26.528Z,43.53
2023-08-23T22:53:57.844Z,43.21
2023-08-23T22:56:24.569Z,43.47
2023-08-23T22:58:51.209Z,43.02
2023-08-23T23:01:18.222Z,42.66
2023-08-23T23:03:45.250Z,43.23
2023-08-23T23:06:12.758Z,42.80
2023-08-23T23:08:40.134Z,43.13
2023-08-23T23:11:08.154Z,43.30
2023-08-23T23:13:35.028Z,43.49
2023-08-23T23:16:06.620Z,43.75
2023-08-23T23:18:37.529Z,43.73
2023-08-23T23:21:16.498Z,43.66
2023-08-23T23:23:54.028Z,43.73
2023-08-23T23:26:21.594Z,44.13
2023-08-23T23:28:49.091Z,44.17
2023-08-23T23:31:15.876Z,43.76
2023-08-23T23:33:46.893Z,43.89
2023-08-23T23:36:14.578Z,44.03
2023-08-23T23:38:50.923Z,44.00
2023-08-23T23:41:27.954Z,43.99
2023-08-23T23:43:57.223Z,44.18
2023-08-23T23:46:25.897Z,44.34
2023-08-23T23:48:52.540Z,46.52
2023-08-23T23:51:21.640Z,44.60
2023-08-23T23:53:48.648Z,44.35
2023-08-23T23:56:19.219Z,44.35
2023-08-23T23:58:48.497Z,44.68
